Time;durP1;ratioP1;P1;durP2;ratioP2;P2;SDS_P1;SDS_P2;PMS_P1;PMS_P2;Temp;Humidity;BMP_temperature;BMP_pressure;BME280_temperature;BME280_humidity;BME280_pressure;Samples;Min_cycle;Max_cycle;Signal;HPM_P1;HPM_P2
2021/03/22 00:00:42;;;;;;;22.13;4.53;;;4.70;99.90;;;5.74;77.47;101302.09;5000112;28;20485;-84
2021/03/22 00:03:09;;;;;;;26.38;5.63;;;4.70;99.90;;;5.76;78.44;101295.09;4999752;28;20049;-86
2021/03/22 00:05:36;;;;;;;24.13;4.18;;;4.70;99.90;;;5.74;78.20;101299.31;5018065;28;20026;-84
2021/03/22 00:08:06;;;;;;;24.67;5.15;;;4.70;99.90;;;5.71;78.62;101306.31;4996802;28;20041;-85
2021/03/22 00:10:35;;;;;;;32.55;4.85;;;4.70;99.90;;;5.74;78.34;101308.44;4998551;28;20050;-84
2021/03/22 00:13:02;;;;;;;19.75;5.75;;;4.60;99.90;;;5.72;78.83;101301.56;4982677;28;20030;-85
2021/03/22 00:15:35;;;;;;;26.90;5.05;;;4.60;99.90;;;5.70;78.88;101301.06;4983145;28;20030;-85
2021/03/22 00:18:07;;;;;;;27.20;4.32;;;4.60;99.90;;;5.72;79.17;101305.16;4983854;28;20030;-87
2021/03/22 00:20:33;;;;;;;24.35;4.63;;;4.60;99.90;;;5.71;79.25;101302.72;4981306;28;20457;-85
2021/03/22 00:22:59;;;;;;;24.70;4.38;;;4.60;99.90;;;5.68;79.20;101301.34;4980662;28;20030;-85
2021/03/22 00:25:25;;;;;;;26.67;4.75;;;4.60;99.90;;;5.63;79.51;101301.47;4980639;28;20130;-86
2021/03/22 00:27:51;;;;;;;30.45;4.60;;;4.60;99.90;;;5.71;80.02;101303.53;4980334;28;20030;-85
2021/03/22 00:30:32;;;;;;;19.38;4.38;;;4.60;99.90;;;5.72;79.73;101298.78;4999341;28;20112;-86
2021/03/22 00:32:59;;;;;;;21.50;4.03;;;4.60;99.90;;;5.70;79.90;101301.06;4980908;28;20041;-83
2021/03/22 00:35:26;;;;;;;26.15;5.03;;;4.60;99.90;;;5.73;79.53;101301.25;4998323;28;20026;-86
2021/03/22 00:37:52;;;;;;;23.23;3.78;;;4.60;99.90;;;5.71;79.70;101292.44;4980458;28;20076;-84
2021/03/22 00:40:24;;;;;;;21.15;4.30;;;4.60;99.90;;;5.73;79.60;101286.56;4980456;28;20033;-85
2021/03/22 00:42:51;;;;;;;26.65;5.00;;;4.60;99.90;;;5.65;79.88;101282.56;4980279;28;20434;-85
2021/03/22 00:45:20;;;;;;;20.98;3.65;;;4.60;99.90;;;5.71;79.72;101286.91;4997554;28;20026;-85
2021/03/22 00:47:49;;;;;;;19.20;3.88;;;4.60;99.90;;;5.66;79.44;101281.44;4980132;28;20393;-86
2021/03/22 00:50:38;;;;;;;19.42;4.50;;;4.60;99.90;;;5.63;80.29;101281.25;4980026;28;20027;-86
2021/03/22 00:53:08;;;;;;;22.25;5.15;;;4.60;99.90;;;5.70;79.71;101281.66;4980564;28;20038;-86
2021/03/22 00:55:35;;;;;;;19.88;4.60;;;4.60;99.90;;;5.69;79.84;101275.28;4980977;28;20102;-84
2021/03/22 00:58:01;;;;;;;20.92;4.40;;;4.60;99.90;;;5.77;79.71;101277.34;4980689;28;20034;-86
2021/03/22 01:00:43;;;;;;;20.20;5.32;;;4.60;99.90;;;5.74;80.20;101283.50;4980299;28;20065;-86
2021/03/22 01:03:17;;;;;;;14.90;3.85;;;4.60;99.90;;;5.72;80.30;101271.88;4981462;28;20038;-86
2021/03/22 01:05:45;;;;;;;27.05;4.25;;;4.60;99.90;;;5.76;80.33;101278.47;4980427;28;20022;-84
2021/03/22 01:08:12;;;;;;;23.98;4.20;;;4.60;99.90;;;5.72;79.98;101276.59;4980273;28;20085;-85
2021/03/22 01:10:50;;;;;;;25.50;4.38;;;4.60;99.90;;;5.75;79.61;101276.81;4998066;28;20041;-85
2021/03/22 01:13:33;;;;;;;26.65;4.82;;;4.60;99.90;;;5.70;80.11;101274.16;4980577;28;20029;-86
2021/03/22 01:16:05;;;;;;;15.85;3.60;;;4.60;99.90;;;5.63;80.47;101270.16;4982183;28;20359;-85
2021/03/22 01:18:46;;;;;;;21.42;4.18;;;4.60;99.90;;;5.55;80.52;101265.38;4981616;28;20046;-85
2021/03/22 01:21:37;;;;;;;24.08;3.65;;;4.50;99.90;;;5.49;80.83;101259.09;4999129;28;20124;-87
2021/03/22 01:24:06;;;;;;;18.88;3.20;;;4.40;99.90;;;5.51;80.92;101264.34;4982717;28;20045;-84
2021/03/22 01:26:35;;;;;;;27.15;3.83;;;4.40;99.90;;;5.54;81.34;101263.72;4999043;28;20058;-84
2021/03/22 01:29:16;;;;;;;27.35;4.30;;;4.40;99.90;;;5.54;81.16;101259.00;4982348;28;20386;-86
2021/03/22 01:31:45;;;;;;;26.35;5.15;;;4.40;99.90;;;5.52;81.65;101258.47;4998738;28;20035;-84
2021/03/22 01:34:11;;;;;;;20.17;3.47;;;4.40;99.90;;;5.49;81.46;101250.78;4982662;28;20065;-85
2021/03/22 01:36:37;;;;;;;27.38;5.30;;;4.40;99.90;;;5.57;81.09;101250.06;4985711;28;20030;-85
2021/03/22 01:39:32;;;;;;;23.83;4.68;;;4.40;99.90;;;5.54;81.06;101247.09;5011417;28;20026;-85
2021/03/22 01:42:20;;;;;;;23.65;4.80;;;4.40;99.90;;;5.58;81.55;101246.16;4999797;28;20030;-83
2021/03/22 01:45:02;;;;;;;38.20;5.05;;;4.40;99.90;;;5.60;80.90;101254.97;4996871;28;20022;-82
2021/03/22 01:47:34;;;;;;;29.23;5.40;;;4.50;99.90;;;5.62;80.70;101254.69;4978601;28;20026;-83
2021/03/22 01:50:26;;;;;;;27.98;3.97;;;4.50;99.90;;;5.62;80.65;101252.72;4994908;28;20054;-85
2021/03/22 01:52:56;;;;;;;23.10;4.45;;;4.50;99.90;;;5.59;81.20;101255.28;4976439;28;20062;-82
2021/03/22 01:55:26;;;;;;;24.60;4.47;;;4.50;99.90;;;5.59;81.28;101252.50;4977057;28;20034;-84
2021/03/22 01:57:52;;;;;;;24.88;3.92;;;4.50;99.90;;;5.59;80.89;101244.19;4994304;28;20088;-86
2021/03/22 02:00:32;;;;;;;19.60;4.10;;;4.50;99.90;;;5.53;80.98;101249.03;4977196;28;20027;-84
2021/03/22 02:03:18;;;;;;;19.02;4.47;;;4.50;99.90;;;5.54;81.24;101244.31;4994489;28;20026;-84
2021/03/22 02:05:50;;;;;;;23.15;4.25;;;4.50;99.90;;;5.58;81.55;101251.72;4994277;28;20470;-83
2021/03/22 02:08:40;;;;;;;17.45;4.40;;;4.50;99.90;;;5.58;81.32;101242.56;4976854;28;20050;-84
2021/03/22 02:11:29;;;;;;;16.88;3.50;;;4.50;99.90;;;5.61;81.01;101242.78;4976861;28;20398;-84
2021/03/22 02:14:03;;;;;;;23.45;3.85;;;4.50;99.90;;;5.59;81.15;101246.97;4977119;28;20031;-86
2021/03/22 02:17:13;;;;;;;25.98;4.10;;;4.50;99.90;;;5.64;81.55;101246.88;4976996;28;20046;-84
2021/03/22 02:20:30;;;;;;;21.85;3.28;;;4.50;99.90;;;5.66;81.48;101252.91;4976641;28;20113;-83
2021/03/22 02:23:51;;;;;;;26.27;4.00;;;4.50;99.90;;;5.63;81.30;101245.22;4994155;28;20344;-85
2021/03/22 02:26:56;;;;;;;22.75;4.20;;;4.50;99.90;;;5.58;81.18;101250.88;4977176;28;20038;-83
2021/03/22 02:30:03;;;;;;;18.52;4.07;;;4.60;99.90;;;5.70;81.23;101248.41;4981068;28;20037;-83
2021/03/22 02:34:01;;;;;;;22.77;4.93;;;4.60;99.90;;;5.68;81.39;101251.47;4980937;28;20050;-84
2021/03/22 02:36:42;;;;;;;24.13;5.32;;;4.60;99.90;;;5.67;81.10;101244.28;4961029;28;20125;-86
2021/03/22 02:39:08;;;;;;;21.33;3.78;;;4.60;99.90;;;5.64;80.93;101244.09;4981109;28;20034;-83
2021/03/22 02:42:04;;;;;;;15.45;3.47;;;4.60;99.90;;;5.66;81.45;101239.88;4981577;28;20034;-84
2021/03/22 02:44:37;;;;;;;20.38;4.55;;;4.60;99.90;;;5.68;81.25;101243.16;4980925;28;20094;-83
2021/03/22 02:47:29;;;;;;;21.48;4.28;;;4.60;99.90;;;5.74;80.93;101241.09;4981016;28;20179;-84
2021/03/22 02:50:02;;;;;;;15.57;4.20;;;4.60;99.90;;;5.70;81.02;101243.66;4980765;28;20068;-85
2021/03/22 02:52:31;;;;;;;22.75;3.75;;;4.60;99.90;;;5.72;81.14;101246.13;4980502;28;20034;-82
2021/03/22 02:55:15;;;;;;;27.00;4.03;;;4.60;99.90;;;5.68;81.66;101234.84;4980847;28;20038;-85
2021/03/22 02:57:59;;;;;;;26.00;3.88;;;4.60;99.90;;;5.68;81.70;101245.13;4981070;28;20030;-84
2021/03/22 03:00:42;;;;;;;19.73;3.72;;;4.50;99.90;;;5.72;81.69;101246.13;4981342;28;20029;-84
2021/03/22 03:03:17;;;;;;;20.75;4.97;;;4.60;99.90;;;5.73;81.65;101243.03;4980962;28;20030;-83
2021/03/22 03:05:53;;;;;;;;;;;4.60;99.90;;;5.71;81.88;101248.09;4981429;28;20033;-86
2021/03/22 03:08:31;;;;;;;22.27;4.20;;;4.50;99.90;;;5.73;81.72;101248.59;4989535;28;19909;-85
2021/03/22 03:10:59;;;;;;;25.88;3.88;;;4.60;99.90;;;5.66;81.91;101247.38;4980742;28;20543;-84
2021/03/22 03:13:25;;;;;;;20.30;3.92;;;4.60;99.90;;;5.70;81.86;101246.44;4998298;28;20038;-84
2021/03/22 03:15:52;;;;;;;18.67;3.88;;;4.60;99.90;;;5.69;81.56;101242.03;4980718;28;20034;-83
2021/03/22 03:18:19;;;;;;;16.92;3.78;;;4.60;99.90;;;5.71;81.36;101245.31;4980691;28;20037;-86
2021/03/22 03:20:45;;;;;;;29.42;5.43;;;4.60;99.90;;;5.71;81.76;101241.72;4980604;28;20026;-85
2021/03/22 03:23:12;;;;;;;20.65;4.03;;;4.60;99.90;;;5.73;81.63;101251.38;4980409;28;20084;-84
2021/03/22 03:25:38;;;;;;;17.55;4.05;;;4.60;99.90;;;5.70;81.32;101249.22;4980792;28;20113;-84
2021/03/22 03:28:04;;;;;;;22.23;4.13;;;4.60;99.90;;;5.75;81.66;101253.81;4980926;28;20376;-85
2021/03/22 03:30:36;;;;;;;24.38;4.65;;;4.60;99.90;;;5.71;81.73;101250.03;4997973;28;20030;-85
2021/03/22 03:33:07;;;;;;;29.65;4.65;;;4.60;99.90;;;5.70;81.60;101248.41;4981038;28;20060;-84
2021/03/22 03:35:38;;;;;;;15.57;4.40;;;4.60;99.90;;;5.73;81.77;101259.69;4998024;28;20379;-85
2021/03/22 03:38:07;;;;;;;25.25;4.38;;;4.60;99.90;;;5.74;81.99;101253.00;4979753;28;20057;-85
2021/03/22 03:40:41;;;;;;;23.60;5.13;;;4.60;99.90;;;5.67;81.76;101249.84;5000868;28;20057;-84
2021/03/22 03:43:09;;;;;;;16.40;4.05;;;4.60;99.90;;;5.70;81.53;101257.53;5006999;28;20022;-84
2021/03/22 03:45:40;;;;;;;20.10;4.65;;;4.60;99.90;;;5.67;81.81;101262.88;5008638;28;20030;-85
2021/03/22 03:48:13;;;;;;;23.98;4.00;;;4.60;99.90;;;5.67;81.92;101260.94;4984012;28;20445;-83
2021/03/22 03:50:41;;;;;;;24.92;4.63;;;4.60;99.90;;;5.67;82.26;101257.34;4979473;28;20034;-84
2021/03/22 03:53:10;;;;;;;22.30;4.80;;;4.60;99.90;;;5.68;82.57;101250.66;4979308;28;20125;-81
2021/03/22 03:55:36;;;;;;;20.15;6.03;;;4.60;99.90;;;5.59;82.67;101252.50;5003914;28;20033;-85
2021/03/22 03:58:04;;;;;;;24.42;5.85;;;4.50;99.90;;;5.59;82.92;101250.56;4992629;28;20022;-84
2021/03/22 04:00:43;;;;;;;24.67;6.03;;;4.50;99.90;;;5.60;82.91;101240.31;4979630;28;20063;-84
2021/03/22 04:03:36;;;;;;;22.15;6.00;;;4.50;99.90;;;5.56;83.66;101244.81;4980388;28;20037;-85
2021/03/22 04:06:24;;;;;;;29.63;5.47;;;4.50;99.90;;;5.55;83.51;101259.81;4981599;28;20537;-84
2021/03/22 04:09:18;;;;;;;21.58;5.13;;;4.40;99.90;;;5.52;83.87;101258.47;4993826;28;20383;-84
2021/03/22 04:11:50;;;;;;;23.75;5.68;;;4.40;99.90;;;5.51;84.01;101250.47;4979807;28;20113;-82
2021/03/22 04:14:29;;;;;;;20.20;5.68;;;4.40;99.90;;;5.49;84.14;101261.84;4997193;28;20114;-83
2021/03/22 04:16:55;;;;;;;31.40;5.63;;;4.40;99.90;;;5.42;84.59;101258.72;4979546;28;20034;-85
2021/03/22 04:19:23;;;;;;;21.95;5.63;;;4.40;99.90;;;5.42;84.76;101255.09;4979578;28;20134;-86
2021/03/22 04:21:51;;;;;;;24.23;5.72;;;4.40;99.90;;;5.35;84.76;101257.47;4979733;28;20149;-84
2021/03/22 04:24:20;;;;;;;22.25;5.82;;;4.30;99.90;;;5.41;84.78;101264.53;4980193;28;20080;-86
2021/03/22 04:26:46;;;;;;;22.75;6.55;;;4.30;99.90;;;5.40;84.83;101266.47;4979604;28;20141;-86
2021/03/22 04:29:12;;;;;;;23.85;5.75;;;4.30;99.90;;;5.41;84.58;101268.13;4997484;28;20038;-85
2021/03/22 04:31:39;;;;;;;22.80;6.60;;;4.30;99.90;;;5.36;85.26;101267.44;4997650;28;20027;-85
2021/03/22 04:34:06;;;;;;;21.88;5.85;;;4.20;99.90;;;5.33;85.73;101263.31;4979943;28;20056;-85
2021/03/22 04:37:04;;;;;;;17.98;5.85;;;4.20;99.90;;;5.31;85.62;101268.34;4997579;28;20030;-85
2021/03/22 04:39:33;;;;;;;26.20;5.95;;;4.20;99.90;;;5.37;84.69;101275.41;4980467;28;20050;-86
2021/03/22 04:41:59;;;;;;;24.38;5.90;;;4.20;99.90;;;5.33;85.03;101277.16;4980737;28;20026;-87
2021/03/22 04:44:25;;;;;;;13.95;5.38;;;4.30;99.90;;;5.33;84.79;101263.31;4999340;28;20019;-84
2021/03/22 04:46:51;;;;;;;23.48;5.85;;;4.20;99.90;;;5.26;85.63;101272.06;4983045;28;20061;-86
2021/03/22 04:49:17;;;;;;;20.52;6.25;;;4.20;99.90;;;5.27;85.39;101278.38;5002988;28;20030;-87
2021/03/22 04:51:43;;;;;;;22.33;6.75;;;4.10;99.90;;;5.28;85.38;101280.03;4984756;28;20034;-84
2021/03/22 04:54:09;;;;;;;27.30;6.65;;;4.10;99.90;;;5.25;85.86;101277.88;4981453;28;20483;-83
2021/03/22 04:56:35;;;;;;;21.40;6.38;;;4.10;99.90;;;5.22;86.28;101270.19;4979933;28;20033;-85
2021/03/22 04:59:02;;;;;;;29.20;6.22;;;4.10;99.90;;;5.23;86.29;101271.84;4980136;28;20026;-82
2021/03/22 05:01:28;;;;;;;24.20;6.50;;;4.10;99.90;;;5.23;86.55;101280.16;4980171;28;20023;-84
2021/03/22 05:03:59;;;;;;;21.25;6.53;;;4.10;99.90;;;5.21;86.54;101279.63;4980265;28;20034;-83
2021/03/22 05:06:25;;;;;;;22.23;7.32;;;4.10;99.90;;;5.20;87.06;101270.47;4978987;28;20030;-84
2021/03/22 05:08:51;;;;;;;29.58;6.78;;;4.10;99.90;;;5.19;87.59;101262.50;5012528;28;20040;-85
2021/03/22 05:11:18;;;;;;;30.40;8.82;;;4.10;99.90;;;5.10;87.27;101269.88;4997647;28;20057;-86
2021/03/22 05:13:46;;;;;;;32.28;8.20;;;4.10;99.90;;;5.12;87.50;101270.38;5016915;28;20030;-83
2021/03/22 05:16:13;;;;;;;23.17;6.97;;;4.10;99.90;;;5.03;87.57;101275.81;5016339;28;20394;-85
2021/03/22 05:18:40;;;;;;;23.02;7.22;;;4.00;99.90;;;4.95;88.18;101264.63;4999751;28;20061;-85
2021/03/22 05:21:09;;;;;;;26.58;8.20;;;3.90;99.90;;;4.95;88.67;101279.28;4998705;28;20030;-82
2021/03/22 05:23:40;;;;;;;25.98;8.57;;;3.90;99.90;;;4.94;88.87;101274.06;4999154;28;20115;-84
2021/03/22 05:26:09;;;;;;;23.58;7.10;;;3.90;99.90;;;5.00;88.39;101279.22;4998910;28;20026;-85
2021/03/22 05:28:40;;;;;;;33.92;9.95;;;3.90;99.90;;;5.06;88.09;101279.91;4998668;28;20025;-83
2021/03/22 05:31:08;;;;;;;22.73;8.23;;;3.90;99.90;;;5.06;88.63;101291.00;5015892;28;20026;-82
2021/03/22 05:33:34;;;;;;;34.08;9.63;;;3.90;99.90;;;5.05;89.32;101290.16;4997930;28;20025;-83
2021/03/22 05:36:01;;;;;;;28.42;8.55;;;4.00;99.90;;;5.13;88.96;101291.41;4998291;28;20309;-84
2021/03/22 05:38:29;;;;;;;27.63;8.50;;;4.00;99.90;;;5.18;88.26;101291.31;4997880;28;20041;-84
2021/03/22 05:41:13;;;;;;;28.85;9.27;;;4.00;99.90;;;5.17;89.15;101290.47;5015947;28;20481;-85
2021/03/22 05:44:10;;;;;;;30.15;8.93;;;4.00;99.90;;;5.19;88.58;101290.19;4998261;28;20091;-85
2021/03/22 05:46:56;;;;;;;31.42;7.65;;;4.10;99.90;;;5.26;88.42;101294.22;4997664;28;20038;-86
2021/03/22 05:50:11;;;;;;;;;;;4.10;99.90;;;5.25;88.27;101291.72;4999263;28;20105;-87
2021/03/22 05:53:03;;;;;;;34.95;8.90;;;4.10;99.90;;;5.30;88.40;101295.22;4997594;28;19913;-86
2021/03/22 05:55:57;;;;;;;27.58;8.82;;;4.20;99.90;;;5.32;87.68;101303.22;5014610;28;20045;-85
2021/03/22 05:58:49;;;;;;;30.30;9.23;;;4.20;99.90;;;5.32;87.93;101300.47;4997992;28;20159;-84
2021/03/22 06:01:50;;;;;;;21.58;9.40;;;4.20;99.90;;;5.34;88.30;101309.28;4996432;28;20080;-82
2021/03/22 06:04:43;;;;;;;31.88;8.52;;;4.20;99.90;;;5.35;88.03;101302.63;5015186;28;20097;-86
2021/03/22 06:07:21;;;;;;;31.95;8.85;;;4.30;99.90;;;5.37;88.18;101314.19;4995361;28;20450;-85
2021/03/22 06:10:19;;;;;;;19.95;7.47;;;4.30;99.90;;;5.40;88.71;101310.81;4995271;28;20054;-85
2021/03/22 06:13:00;;;;;;;29.70;8.80;;;4.30;99.90;;;5.40;88.65;101310.81;4980394;28;20096;-82
2021/03/22 06:15:51;;;;;;;25.58;8.00;;;4.30;99.90;;;5.49;88.54;101313.69;5000531;28;20089;-85
2021/03/22 06:19:01;;;;;;;28.45;8.35;;;4.30;99.90;;;5.52;89.07;101308.34;4978674;28;20077;-84
2021/03/22 06:21:35;;;;;;;28.15;7.50;;;4.30;99.90;;;5.53;88.02;101298.09;4992668;28;20065;-84
2021/03/22 06:24:18;;;;;;;24.13;7.90;;;4.40;99.90;;;5.66;88.31;101309.16;4978505;28;20066;-85
2021/03/22 06:26:49;;;;;;;20.73;6.78;;;4.40;99.90;;;5.67;87.49;101308.03;4979387;28;20030;-85
2021/03/22 06:29:39;;;;;;;27.45;8.07;;;4.50;99.90;;;5.77;87.84;101312.56;4996334;28;20120;-84
2021/03/22 06:32:44;;;;;;;28.10;7.53;;;4.50;99.90;;;5.74;87.45;101314.00;4980311;28;20375;-85
2021/03/22 06:35:31;;;;;;;22.98;7.25;;;4.60;99.90;;;5.83;87.50;101319.63;4980167;28;20037;-84
2021/03/22 06:37:58;;;;;;;27.67;7.65;;;4.60;99.90;;;5.87;86.50;101315.13;4980018;28;20035;-83
2021/03/22 06:40:26;;;;;;;17.85;6.85;;;4.60;99.90;;;5.95;86.62;101322.72;4980226;28;20031;-83
2021/03/22 06:43:26;;;;;;;24.25;7.57;;;4.70;99.90;;;6.05;86.47;101322.47;4995828;28;20046;-85
2021/03/22 06:46:12;;;;;;;26.63;7.28;;;4.70;99.90;;;6.05;86.21;101324.44;4980401;28;20097;-85
2021/03/22 06:48:38;;;;;;;21.88;8.13;;;4.80;99.90;;;5.99;86.26;101325.69;4982559;28;20129;-83
2021/03/22 06:51:03;;;;;;;27.02;8.20;;;4.90;99.90;;;6.03;86.25;101324.75;4980914;28;20038;-84
2021/03/22 06:53:46;;;;;;;23.25;7.63;;;4.90;99.90;;;6.06;85.83;101329.69;4996122;28;20106;-83
2021/03/22 06:56:37;;;;;;;38.90;8.75;;;4.90;99.90;;;6.00;86.01;101325.38;4981157;28;20065;-85
2021/03/22 06:59:21;;;;;;;31.67;8.52;;;4.90;99.90;;;5.97;86.10;101317.69;4988778;28;20073;-85
2021/03/22 07:01:51;;;;;;;26.35;8.48;;;4.90;99.90;;;6.05;85.54;101316.94;4988077;28;20030;-85
2021/03/22 07:04:32;;;;;;;27.42;7.88;;;4.90;99.90;;;6.13;85.53;101318.16;4987094;28;20054;-85
2021/03/22 07:07:24;;;;;;;28.75;9.70;;;5.00;99.90;;;6.24;85.70;101317.59;4984883;28;20118;-86
2021/03/22 07:10:17;;;;;;;30.25;7.97;;;5.10;99.90;;;6.19;85.09;101314.97;5005098;28;20056;-86
2021/03/22 07:12:43;;;;;;;32.58;9.32;;;5.20;99.90;;;6.28;84.68;101320.56;4990954;28;20034;-86
2021/03/22 07:15:36;;;;;;;26.70;7.55;;;5.20;99.90;;;6.22;85.16;101325.44;5009437;28;20030;-84
2021/03/22 07:18:33;;;;;;;20.40;7.85;;;5.10;99.90;;;5.99;85.42;101320.97;5013601;28;20050;-87
2021/03/22 07:21:21;;;;;;;26.33;7.97;;;5.00;99.90;;;5.84;86.05;101319.28;4996687;28;20027;-85
2021/03/22 07:24:17;;;;;;;22.67;7.60;;;5.00;99.90;;;6.15;85.65;101315.88;5011913;28;20338;-85
2021/03/22 07:27:06;;;;;;;23.75;7.38;;;5.00;99.90;;;6.20;85.44;101316.59;4993807;28;20056;-86
2021/03/22 07:30:16;;;;;;;18.95;7.20;;;5.10;99.90;;;6.38;84.52;101323.13;4992480;28;20124;-85
2021/03/22 07:32:57;;;;;;;18.45;6.50;;;5.20;99.90;;;6.47;83.48;101328.72;4990309;28;20030;-85
2021/03/22 07:36:16;;;;;;;21.35;6.45;;;5.30;99.90;;;6.44;83.97;101323.81;5007042;28;20035;-87
2021/03/22 07:39:35;;;;;;;19.10;5.93;;;5.30;99.90;;;6.66;82.47;101332.97;5004944;28;20034;-86
2021/03/22 07:42:29;;;;;;;16.98;5.18;;;5.50;99.90;;;6.75;82.26;101333.00;4991162;28;20041;-84
2021/03/22 07:45:14;;;;;;;18.33;5.70;;;5.60;99.90;;;6.96;81.93;101325.00;4990876;28;20027;-86
2021/03/22 07:48:52;;;;;;;14.68;5.03;;;5.70;99.90;;;7.19;81.11;101337.72;5008245;28;20394;-86
2021/03/22 07:51:55;;;;;;;14.03;4.00;;;5.90;99.90;;;7.46;78.87;101331.13;4988983;28;20041;-87
2021/03/22 07:54:45;;;;;;;9.57;3.42;;;6.30;99.90;;;7.38;78.61;101332.75;5008921;28;20034;-86
2021/03/22 07:58:06;;;;;;;8.80;3.67;;;6.30;99.90;;;7.23;78.25;101345.06;4994280;28;20040;-86
2021/03/22 08:01:15;;;;;;;13.45;3.17;;;6.30;99.90;;;7.26;78.30;101338.88;4996392;28;20057;-84
2021/03/22 08:04:30;;;;;;;10.88;3.70;;;6.20;99.90;;;7.27;78.00;101345.25;5014567;28;20042;-86
2021/03/22 08:07:55;;;;;;;12.00;3.50;;;6.30;99.90;;;7.55;77.02;101354.22;5017556;28;20081;-84
2021/03/22 08:10:48;;;;;;;13.57;3.33;;;6.40;99.90;;;7.48;75.89;101342.75;5016728;28;20030;-87
2021/03/22 08:13:40;;;;;;;9.70;3.63;;;6.40;99.90;;;7.54;76.08;101349.81;5017438;28;20014;-87
2021/03/22 08:17:06;;;;;;;6.60;3.08;;;6.40;99.90;;;7.64;75.39;101355.09;5018069;28;20034;-85
2021/03/22 08:20:17;;;;;;;10.35;4.03;;;6.50;99.90;;;7.74;74.59;101352.81;5018471;28;20093;-85
2021/03/22 08:23:23;;;;;;;7.80;2.92;;;6.60;99.90;;;7.76;74.52;101363.63;5014530;28;20053;-86
2021/03/22 08:26:03;;;;;;;11.40;3.53;;;6.70;99.90;;;8.07;72.00;101355.19;4991213;28;20049;-86
2021/03/22 08:28:45;;;;;;;13.30;3.63;;;6.90;99.90;;;8.18;70.59;101365.72;5015239;28;20018;-86
2021/03/22 08:31:59;;;;;;;8.23;2.55;;;7.10;99.90;;;8.34;69.12;101358.56;5014043;28;20107;-86
2021/03/22 08:35:00;;;;;;;10.80;3.45;;;7.20;99.90;;;8.32;68.74;101363.63;4971708;28;20030;-87
2021/03/22 08:38:09;;;;;;;8.88;2.83;;;7.10;99.90;;;8.27;70.35;101365.72;5029293;28;20034;-86
2021/03/22 08:40:58;;;;;;;6.85;2.67;;;7.00;99.90;;;7.80;72.10;101373.78;5008342;28;20229;-86
2021/03/22 08:43:53;;;;;;;8.80;2.40;;;6.80;99.90;;;7.63;72.89;101372.91;5028555;28;20022;-87
2021/03/22 08:47:18;;;;;;;7.68;2.08;;;6.70;99.90;;;7.60;72.61;101370.75;5026466;28;20514;-86
2021/03/22 08:50:03;;;;;;;9.02;2.50;;;6.60;99.90;;;7.69;72.68;101375.22;5009456;28;20038;-84
2021/03/22 08:52:38;;;;;;;4.38;1.90;;;6.60;99.90;;;7.83;70.94;101387.03;5014785;28;20021;-84
2021/03/22 08:55:15;;;;;;;7.90;2.47;;;6.70;99.90;;;7.91;70.78;101380.69;5009088;28;20034;-85
2021/03/22 08:58:22;;;;;;;8.73;2.70;;;6.80;99.90;;;7.89;71.17;101387.72;5021765;28;20053;-84
2021/03/22 09:00:53;;;;;;;8.75;2.30;;;6.70;99.90;;;7.96;72.01;101391.66;5010510;28;20053;-85
2021/03/22 09:03:33;;;;;;;8.30;2.88;;;6.70;99.90;;;7.93;72.09;101397.03;5013389;28;20041;-86
2021/03/22 09:06:24;;;;;;;6.57;2.72;;;6.70;99.90;;;7.74;72.94;101388.97;5015100;28;20029;-86
2021/03/22 09:08:51;;;;;;;8.25;2.25;;;6.60;99.90;;;7.56;73.24;101383.66;5016103;28;20022;-83
2021/03/22 09:11:51;;;;;;;7.35;2.90;;;6.60;99.90;;;7.61;73.53;101389.88;5015723;28;20030;-84
2021/03/22 09:14:39;;;;;;;7.18;2.55;;;6.50;99.90;;;7.64;73.02;101400.38;5012843;28;20038;-84
2021/03/22 09:17:58;;;;;;;4.20;2.28;;;6.50;99.90;;;7.60;72.70;101393.84;5011270;28;20030;-85
2021/03/22 09:20:29;;;;;;;3.72;2.47;;;6.50;99.90;;;7.54;73.47;101397.06;5010640;28;20050;-85
2021/03/22 09:23:36;;;;;;;5.50;2.40;;;6.50;99.90;;;7.60;73.51;101393.00;5009195;28;20030;-84
2021/03/22 09:26:09;;;;;;;5.57;2.38;;;6.50;99.90;;;7.89;72.91;101399.69;5011323;28;20073;-85
2021/03/22 09:28:46;;;;;;;8.07;2.88;;;6.60;99.90;;;7.92;72.80;101406.56;5014208;28;20072;-84
2021/03/22 09:31:11;;;;;;;;;;;6.70;99.90;;;7.78;72.72;101406.66;5015948;28;20030;-82
2021/03/22 09:33:51;;;;;;;8.60;2.60;;;6.60;99.90;;;7.57;73.30;101408.38;5032138;28;19904;-83
2021/03/22 09:36:42;;;;;;;7.47;2.35;;;6.50;99.90;;;7.42;74.12;101411.53;5005173;28;20132;-84
2021/03/22 09:39:14;;;;;;;10.05;2.15;;;6.40;99.90;;;7.32;74.52;101422.94;5001907;28;20029;-81
2021/03/22 09:41:54;;;;;;;4.85;2.35;;;6.20;99.90;;;7.42;74.63;101411.53;5004586;28;20490;-83
2021/03/22 09:44:30;;;;;;;6.38;2.90;;;6.30;99.90;;;7.50;74.02;101415.53;5009155;28;20030;-84
2021/03/22 09:47:22;;;;;;;;;;;6.30;99.90;;;7.47;73.97;101416.97;5008656;28;20026;-82
2021/03/22 09:50:23;;;;;;;9.30;2.78;;;6.40;99.90;;;7.55;74.51;101420.94;5025686;28;19956;-84
2021/03/22 09:52:53;;;;;;;5.88;2.40;;;6.40;99.90;;;7.58;74.09;101415.56;5022383;28;20484;-84
2021/03/22 09:55:28;;;;;;;7.82;2.17;;;6.40;99.90;;;7.73;73.64;101415.16;5017139;28;20545;-84
2021/03/22 09:58:18;;;;;;;8.10;2.53;;;6.50;99.90;;;7.88;72.85;101413.88;4999794;28;20060;-84
2021/03/22 10:01:04;;;;;;;4.60;2.22;;;6.60;99.90;;;8.10;72.53;101421.31;4999579;28;20022;-83
2021/03/22 10:04:14;;;;;;;10.35;2.92;;;6.70;99.90;;;8.17;71.48;101414.16;4999946;28;20026;-83
2021/03/22 10:06:58;;;;;;;10.88;2.53;;;6.80;99.90;;;8.29;70.89;101413.53;5007758;28;20049;-83
2021/03/22 10:09:37;;;;;;;7.05;2.25;;;7.00;99.90;;;8.32;70.46;101404.53;4980492;28;20133;-86
2021/03/22 10:12:34;;;;;;;6.57;2.15;;;7.10;99.90;;;8.35;69.98;101407.50;4980516;28;20046;-83
2021/03/22 10:15:12;;;;;;;9.18;2.50;;;7.10;99.90;;;8.17;70.42;101413.31;4996928;28;20038;-81
2021/03/22 10:18:09;;;;;;;7.40;2.35;;;7.00;99.90;;;8.19;71.04;101411.84;4980739;28;20026;-84
2021/03/22 10:20:41;;;;;;;;;;;7.00;99.90;;;8.08;70.97;101418.88;4980401;28;20089;-84
2021/03/22 10:23:37;;;;;;;7.78;2.45;;;6.90;99.90;;;8.07;70.25;101419.19;4998207;28;19910;-85
2021/03/22 10:26:29;;;;;;;10.80;2.80;;;6.90;99.90;;;8.15;70.75;101421.19;4997425;28;20035;-82
2021/03/22 10:29:20;;;;;;;12.73;4.22;;;6.90;99.90;;;8.07;70.76;101422.78;4980098;28;20030;-84
2021/03/22 10:32:22;;;;;;;12.25;3.55;;;6.90;99.90;;;8.10;71.22;101422.16;4997799;28;20040;-85
2021/03/22 10:35:16;;;;;;;6.97;2.78;;;6.90;99.90;;;8.27;70.44;101415.81;4998673;28;20030;-85
2021/03/22 10:37:55;;;;;;;6.93;2.88;;;7.00;99.90;;;8.46;69.48;101414.41;4980380;28;20027;-83
2021/03/22 10:40:23;;;;;;;7.82;2.97;;;7.20;99.90;;;8.63;69.15;101416.41;4997837;28;20037;-84
2021/03/22 10:42:54;;;;;;;9.43;3.28;;;7.30;99.90;;;8.90;68.43;101426.38;4982276;28;20519;-83
2021/03/22 10:45:22;;;;;;;7.82;2.97;;;7.50;99.90;;;9.06;67.15;101421.13;4997444;28;20081;-83
2021/03/22 10:47:58;;;;;;;6.85;2.55;;;7.70;99.90;;;9.08;66.74;101418.84;4982591;28;20037;-86
2021/03/22 10:50:37;;;;;;;12.20;3.85;;;7.70;99.90;;;8.89;66.71;101431.13;5003669;28;20036;-86
2021/03/22 10:53:17;;;;;;;8.55;3.67;;;7.60;99.90;;;8.78;67.58;101420.66;4999416;28;20050;-86
2021/03/22 10:55:49;;;;;;;10.88;3.42;;;7.50;99.90;;;8.65;67.75;101422.44;5011273;28;20022;-86
2021/03/22 10:58:35;;;;;;;9.63;3.38;;;7.40;99.90;;;8.67;68.50;101422.13;5019900;28;20042;-85
2021/03/22 11:01:08;;;;;;;7.35;3.30;;;7.40;99.90;;;8.78;67.93;101421.47;5014397;28;20801;-84
2021/03/22 11:03:37;;;;;;;7.47;2.80;;;7.50;99.90;;;8.91;67.53;101428.03;4998306;28;20434;-87
2021/03/22 11:06:13;;;;;;;8.80;3.20;;;7.50;99.90;;;8.87;67.71;101418.69;4998628;28;20482;-85
2021/03/22 11:08:45;;;;;;;6.88;2.42;;;7.50;99.90;;;8.89;67.41;101428.34;5015541;28;20026;-85
2021/03/22 11:11:18;;;;;;;13.65;4.90;;;7.50;99.90;;;8.63;67.46;101421.97;5003343;28;20037;-84
2021/03/22 11:13:51;;;;;;;12.73;3.10;;;7.40;99.90;;;8.73;67.87;101431.97;5003112;28;20088;-84
2021/03/22 11:16:28;;;;;;;11.70;3.38;;;7.40;99.90;;;8.82;68.06;101430.00;5006837;28;20037;-86
2021/03/22 11:19:00;;;;;;;18.20;5.90;;;7.50;99.90;;;8.80;67.94;101438.66;5018340;28;20037;-85
2021/03/22 11:21:28;;;;;;;13.32;4.78;;;7.50;99.90;;;8.76;68.35;101437.69;5003268;28;20026;-85